Pagina principală
METAR-TAF:

METAR-TAF

Aeroporturi :

NWS Office

Pohnpei, Micronezia

Latitudine: 06-58N, longitudine: 158-13E, elevație: 39 m

Observații meteo curente

Raportul a fost făcut în urmă cu 51 de minute, la 14:53 UTC
Vânt 5 kt de la Est
Temperatură 28°C
Umiditate 89%
Presiune 1010 hPa
Vizibilitate: 24.1 km
Nori împrăștiați la o înălțime de 1800 picior, Cumulus congestus.
Nori fragmentați la o înălțime de 13000 picior
Total acoperit la o înălțime de 30000 picior

METAR: PTTP 121453Z 08005KT 15SM SCT018TCU BKN130 OVC300 28/26 A2982 RMK SHRAB01E22 TCU E-SE SLP099 60004 8/271 T02840262 57017

Ora: 02:44 (15:44 UTC)


TAF: lipsă

Observații și prognoze meteo pentru peste 4.000 de aeroporturi (rapoarte METAR și TAF).

Stațiile disponibile sunt reprezentate pe hartă prin puncte galbene și roșii.

Țineți indicatorul mouse-ului pe punctul dorit pentru a vedea denumirea stației.

Apoi, faceți clic pentru a vedea observațiile și prognozele meteorologice.

Pentru a schimba harta: Pentru mărire, faceți clic pe butoanele verzi cu cruce neagră; pentru micșorare, pe butonul verde cu o liniuță; pentru hărți învecinate, pe săgețile verzi.


METAR-TAF: